createdAt,value
2018-02-25T00:01:37.210Z,102786.33
2018-02-25T00:04:02.983Z,102785.20
2018-02-25T00:06:28.762Z,102788.51
2018-02-25T00:08:54.538Z,102789.37
2018-02-25T00:11:20.322Z,102779.32
2018-02-25T00:13:46.100Z,102777.95
2018-02-25T00:16:11.869Z,102778.64
2018-02-25T00:18:37.913Z,102773.23
2018-02-25T00:21:03.769Z,102774.12
2018-02-25T00:23:29.546Z,102776.02
2018-02-25T00:25:55.317Z,102770.07
2018-02-25T00:28:21.133Z,102770.77
2018-02-25T00:30:47.065Z,102769.88
2018-02-25T00:33:12.893Z,102773.28
2018-02-25T00:35:38.669Z,102765.02
2018-02-25T00:38:04.446Z,102767.00
2018-02-25T00:40:30.221Z,102768.03
2018-02-25T00:42:55.997Z,102765.99
2018-02-25T00:45:21.793Z,102773.39
2018-02-25T00:47:47.565Z,102768.87
2018-02-25T00:50:13.346Z,102764.59
2018-02-25T00:52:39.122Z,102762.45
2018-02-25T00:55:04.894Z,102765.91
2018-02-25T00:57:30.709Z,102765.86
2018-02-25T00:59:56.495Z,102760.91
2018-02-25T01:02:22.270Z,102759.20
2018-02-25T01:04:48.045Z,102760.74
2018-02-25T01:07:13.821Z,102755.12
2018-02-25T01:09:39.597Z,102758.72
2018-02-25T01:12:05.374Z,102755.83
2018-02-25T01:14:31.274Z,102758.48
2018-02-25T01:16:57.063Z,102757.89
2018-02-25T01:19:22.837Z,102764.55
2018-02-25T01:21:48.646Z,102763.22
2018-02-25T01:24:14.441Z,102752.23
2018-02-25T01:26:40.294Z,102756.38
2018-02-25T01:29:06.061Z,102754.01
2018-02-25T01:31:31.886Z,102748.58
2018-02-25T01:33:57.670Z,102748.81
2018-02-25T01:36:24.233Z,102750.92
2018-02-25T01:38:50.010Z,102749.78
2018-02-25T01:41:15.816Z,102751.04
2018-02-25T01:43:41.625Z,102745.21
2018-02-25T01:46:07.407Z,102750.55
2018-02-25T01:48:33.222Z,102746.35
2018-02-25T01:51:04.015Z,102750.18
2018-02-25T01:53:29.870Z,102751.38
2018-02-25T01:55:55.646Z,102750.38
2018-02-25T01:58:21.457Z,102750.66
2018-02-25T02:00:47.225Z,102745.83
2018-02-25T02:03:13.045Z,102741.15
2018-02-25T02:05:38.831Z,102734.81
2018-02-25T02:08:04.615Z,102732.76
2018-02-25T02:10:30.426Z,102727.59
2018-02-25T02:12:56.197Z,102740.07
2018-02-25T02:15:22.025Z,102735.27
2018-02-25T02:17:47.798Z,102736.78
2018-02-25T02:20:13.578Z,102734.59
2018-02-25T02:22:39.359Z,102736.70
2018-02-25T02:25:05.136Z,102742.75
2018-02-25T02:27:30.926Z,102740.04
2018-02-25T02:29:56.697Z,102742.88
2018-02-25T02:32:23.498Z,102744.38
2018-02-25T02:34:50.183Z,102744.58
2018-02-25T02:37:15.990Z,102742.05
2018-02-25T02:39:42.690Z,102748.46
2018-02-25T02:42:08.501Z,102749.86
2018-02-25T02:44:34.273Z,102746.09
2018-02-25T02:47:00.041Z,102748.52
2018-02-25T02:49:26.824Z,102751.66
2018-02-25T02:51:52.598Z,102745.55
2018-02-25T02:54:19.454Z,102747.75
2018-02-25T02:56:46.199Z,102749.33
2018-02-25T02:59:11.971Z,102750.67
2018-02-25T03:01:38.686Z,102745.41
2018-02-25T03:04:05.426Z,102747.31
2018-02-25T03:06:32.159Z,102754.32
2018-02-25T03:08:57.938Z,102753.13
2018-02-25T03:11:23.754Z,102746.15
2018-02-25T03:13:49.538Z,102744.38
2018-02-25T03:16:16.198Z,102748.33
2018-02-25T03:18:41.971Z,102751.45
2018-02-25T03:21:08.661Z,102748.59
2018-02-25T03:23:34.437Z,102747.44
2018-02-25T03:26:00.214Z,102749.78
2018-02-25T03:28:26.785Z,102750.60
2018-02-25T03:30:52.555Z,102748.59
2018-02-25T03:33:19.368Z,102748.30
2018-02-25T03:35:45.185Z,102751.65
2018-02-25T03:38:10.951Z,102754.63
2018-02-25T03:40:36.729Z,102752.35
2018-02-25T03:43:02.502Z,102754.45
2018-02-25T03:45:29.209Z,102754.81
2018-02-25T03:47:55.993Z,102748.32
2018-02-25T03:50:21.766Z,102751.58
2018-02-25T03:52:48.412Z,102751.52
2018-02-25T03:55:15.130Z,102751.05
2018-02-25T03:57:41.962Z,102753.91
2018-02-25T04:00:07.788Z,102753.73
2018-02-25T04:02:33.558Z,102756.95
2018-02-25T04:05:00.315Z,102755.19
2018-02-25T04:07:26.120Z,102753.89
2018-02-25T04:09:51.902Z,102753.17
2018-02-25T04:12:17.669Z,102752.85
2018-02-25T04:14:43.433Z,102749.38
2018-02-25T04:17:09.204Z,102745.92
2018-02-25T04:19:34.968Z,102743.89
2018-02-25T04:22:00.738Z,102745.16
2018-02-25T04:24:27.446Z,102747.14
2018-02-25T04:26:53.225Z,102750.78
2018-02-25T04:29:19.001Z,102748.59
2018-02-25T04:31:44.785Z,102744.45
2018-02-25T04:34:10.606Z,102750.45
2018-02-25T04:36:36.375Z,102745.18
2018-02-25T04:39:02.171Z,102745.92
2018-02-25T04:41:27.942Z,102747.12
2018-02-25T04:43:54.747Z,102743.30
2018-02-25T04:46:21.462Z,102742.78
2018-02-25T04:48:47.236Z,102742.33
2018-02-25T04:51:13.065Z,102738.32
2018-02-25T04:53:38.926Z,102735.61
2018-02-25T04:56:05.529Z,102735.78
2018-02-25T04:58:31.970Z,102734.25
2018-02-25T05:00:57.741Z,102738.13
2018-02-25T05:03:23.546Z,102743.64
2018-02-25T05:05:49.308Z,102740.47
2018-02-25T05:08:15.113Z,102743.00
2018-02-25T05:10:41.913Z,102744.95
2018-02-25T05:13:08.689Z,102742.55
2018-02-25T05:15:35.414Z,102749.27
2018-02-25T05:18:01.220Z,102751.17
2018-02-25T05:20:28.009Z,102739.29
2018-02-25T05:22:53.777Z,102741.70
2018-02-25T05:25:19.601Z,102736.49
2018-02-25T05:27:45.383Z,102740.02
2018-02-25T05:30:11.202Z,102739.98
2018-02-25T05:32:36.976Z,102737.27
2018-02-25T05:35:02.785Z,102740.64
2018-02-25T05:37:29.538Z,102745.64
2018-02-25T05:39:55.311Z,102748.80
2018-02-25T05:42:21.078Z,102748.59
2018-02-25T05:44:46.854Z,102752.36
2018-02-25T05:47:12.666Z,102754.61
2018-02-25T05:49:39.370Z,102756.31
2018-02-25T05:52:05.183Z,102751.87
2018-02-25T05:54:30.958Z,102760.61
2018-02-25T05:56:56.801Z,102761.66
2018-02-25T05:59:23.489Z,102766.52
2018-02-25T06:01:49.309Z,102764.91
2018-02-25T06:04:15.333Z,102770.55
2018-02-25T06:06:41.933Z,102773.92
2018-02-25T06:09:07.706Z,102778.66
2018-02-25T06:11:33.485Z,102776.67
2018-02-25T06:14:00.242Z,102780.38
2018-02-25T06:16:26.993Z,102778.17
2018-02-25T06:18:53.709Z,102778.48
2018-02-25T06:21:19.530Z,102777.83
2018-02-25T06:23:46.282Z,102774.66
2018-02-25T06:26:13.077Z,102776.52
2018-02-25T06:28:39.833Z,102773.33
2018-02-25T06:31:06.525Z,102781.23
2018-02-25T06:33:33.293Z,102785.25
2018-02-25T06:36:00.009Z,102788.87
2018-02-25T06:38:25.782Z,102791.03
2018-02-25T06:40:52.362Z,102792.30
2018-02-25T06:43:19.078Z,102795.88
2018-02-25T06:45:44.870Z,102792.89
2018-02-25T06:48:11.786Z,102791.00
2018-02-25T06:50:38.606Z,102796.06
2018-02-25T06:53:04.377Z,102799.61
2018-02-25T06:55:30.146Z,102796.52
2018-02-25T06:57:55.930Z,102805.95
2018-02-25T07:00:28.787Z,102803.33
2018-02-25T07:02:54.560Z,102797.17
2018-02-25T07:05:20.370Z,102790.38
2018-02-25T07:07:47.006Z,102794.70
2018-02-25T07:10:12.830Z,102788.25
2018-02-25T07:12:39.386Z,102787.98
2018-02-25T07:15:05.198Z,102790.17
2018-02-25T07:17:30.965Z,102789.08
2018-02-25T07:19:56.738Z,102788.52
2018-02-25T07:22:22.517Z,102786.19
2018-02-25T07:24:48.299Z,102786.05
2018-02-25T07:27:14.229Z,102789.16
2018-02-25T07:29:40.002Z,102789.85
2018-02-25T07:32:05.978Z,102789.05
2018-02-25T07:34:31.757Z,102794.27
2018-02-25T07:36:57.527Z,102795.02
2018-02-25T07:39:23.374Z,102790.66
2018-02-25T07:41:49.172Z,102788.63
2018-02-25T07:44:15.065Z,102787.02
2018-02-25T07:46:40.999Z,102786.78
2018-02-25T07:49:06.929Z,102786.05
2018-02-25T07:51:32.713Z,102790.50
2018-02-25T07:53:58.523Z,102789.56
2018-02-25T07:56:24.303Z,102788.40
2018-02-25T07:58:50.082Z,102792.19
2018-02-25T08:01:15.927Z,102789.34
2018-02-25T08:03:41.709Z,102793.36
2018-02-25T08:06:07.655Z,102791.92
2018-02-25T08:08:33.585Z,102789.88
2018-02-25T08:10:59.497Z,102781.88
2018-02-25T08:13:25.275Z,102784.39
2018-02-25T08:15:51.152Z,102787.18
2018-02-25T08:18:17.115Z,102785.34
2018-02-25T08:20:43.021Z,102790.34
2018-02-25T08:23:08.947Z,102783.61
2018-02-25T08:25:34.868Z,102784.07
2018-02-25T08:28:00.760Z,102787.55
2018-02-25T08:30:26.713Z,102785.67
2018-02-25T08:32:52.686Z,102785.29
2018-02-25T08:35:19.078Z,102790.09
2018-02-25T08:37:45.674Z,102788.49
2018-02-25T08:40:11.817Z,102787.14
2018-02-25T08:42:37.928Z,102783.61
2018-02-25T08:45:04.012Z,102788.12
2018-02-25T08:47:30.645Z,102788.09
2018-02-25T08:49:59.103Z,102791.89
2018-02-25T08:52:25.906Z,102787.73
2018-02-25T08:54:51.833Z,102789.06
2018-02-25T08:57:17.940Z,102784.84
2018-02-25T08:59:43.754Z,102787.12
2018-02-25T09:02:09.600Z,102785.88
2018-02-25T09:04:35.374Z,102784.28
2018-02-25T09:07:01.243Z,102779.73
2018-02-25T09:09:26.990Z,102782.30
2018-02-25T09:11:52.765Z,102783.02
2018-02-25T09:14:18.572Z,102780.91
2018-02-25T09:16:44.514Z,102779.54
2018-02-25T09:19:11.269Z,102776.66
2018-02-25T09:21:37.175Z,102777.67
2018-02-25T09:24:02.995Z,102771.83
2018-02-25T09:26:29.699Z,102778.33
2018-02-25T09:28:57.614Z,102773.05
2018-02-25T09:31:23.561Z,102765.53
2018-02-25T09:33:49.485Z,102771.37
2018-02-25T09:36:15.324Z,102767.53
2018-02-25T09:38:41.110Z,102766.00
2018-02-25T09:41:06.913Z,102767.40
2018-02-25T09:43:32.701Z,102765.70
2018-02-25T09:45:58.578Z,102758.40
2018-02-25T09:48:24.345Z,102756.09
2018-02-25T09:50:51.345Z,102752.56
2018-02-25T09:53:17.130Z,102750.41
2018-02-25T09:55:43.106Z,102751.45
2018-02-25T09:58:08.898Z,102745.64
2018-02-25T10:00:35.659Z,102746.40
2018-02-25T10:03:01.447Z,102746.41
2018-02-25T10:05:27.254Z,102739.50
2018-02-25T10:07:53.081Z,102733.98
2018-02-25T10:10:18.894Z,102733.64
2018-02-25T10:12:45.458Z,102730.36
2018-02-25T10:15:12.251Z,102732.16
2018-02-25T10:17:39.017Z,102728.48
2018-02-25T10:20:04.790Z,102723.75
2018-02-25T10:22:30.567Z,102717.88
2018-02-25T10:24:57.328Z,102711.73
2018-02-25T10:27:23.105Z,102714.03
2018-02-25T10:29:48.920Z,102709.16
2018-02-25T10:32:14.712Z,102706.73
2018-02-25T10:34:40.534Z,102700.41
2018-02-25T10:37:06.311Z,102695.80
2018-02-25T10:39:32.101Z,102693.84
2018-02-25T10:41:57.878Z,102695.73
2018-02-25T10:44:23.804Z,102692.78
2018-02-25T10:46:50.438Z,102695.71
2018-02-25T10:49:16.225Z,102685.89
2018-02-25T10:51:42.011Z,102681.75
2018-02-25T10:54:07.828Z,102673.67
2018-02-25T10:56:34.499Z,102668.72
2018-02-25T10:59:00.283Z,102665.84
2018-02-25T11:01:26.249Z,102660.62
2018-02-25T11:03:52.035Z,102663.83
2018-02-25T11:06:17.875Z,102651.16
2018-02-25T11:08:43.657Z,102657.22
2018-02-25T11:11:09.473Z,102650.17
2018-02-25T11:13:35.247Z,102650.03
2018-02-25T11:16:01.030Z,102645.41
2018-02-25T11:18:26.806Z,102640.80
2018-02-25T11:20:52.590Z,102636.95
2018-02-25T11:23:18.412Z,102630.20
2018-02-25T11:25:44.193Z,102628.06
2018-02-25T11:28:10.018Z,102623.73
2018-02-25T11:30:35.798Z,102625.56
2018-02-25T11:33:01.578Z,102617.13
2018-02-25T11:35:27.362Z,102614.91
2018-02-25T11:37:53.150Z,102614.31
2018-02-25T11:40:18.932Z,102611.29
2018-02-25T11:42:44.753Z,102611.89
2018-02-25T11:45:11.522Z,102610.63
2018-02-25T11:47:37.339Z,102608.58
2018-02-25T11:50:03.246Z,102602.70
2018-02-25T11:52:29.039Z,102603.73
2018-02-25T11:54:54.886Z,102604.95
2018-02-25T11:57:20.846Z,102595.74
2018-02-25T11:59:46.630Z,102598.26
2018-02-25T12:02:12.417Z,102599.01
2018-02-25T12:04:38.374Z,102597.88
2018-02-25T12:07:04.998Z,102596.09
2018-02-25T12:09:30.780Z,102593.17
2018-02-25T12:11:56.605Z,102593.41
2018-02-25T12:14:22.385Z,102589.59
2018-02-25T12:16:48.165Z,102586.48
2018-02-25T12:19:14.815Z,102584.51
2018-02-25T12:21:40.600Z,102587.82
2018-02-25T12:24:07.400Z,102584.52
2018-02-25T12:26:33.178Z,102583.83
2018-02-25T12:28:59.003Z,102582.31
2018-02-25T12:31:25.799Z,102582.48
2018-02-25T12:33:52.558Z,102575.31
2018-02-25T12:36:18.698Z,102576.59
2018-02-25T12:38:45.318Z,102580.53
2018-02-25T12:41:12.174Z,102575.89
2018-02-25T12:43:38.934Z,102566.83
2018-02-25T12:46:04.813Z,102559.42
2018-02-25T12:48:30.587Z,102564.59
2018-02-25T12:50:56.399Z,102564.20
2018-02-25T12:53:22.166Z,102552.84
2018-02-25T12:55:48.706Z,102550.47
2018-02-25T12:58:14.497Z,102553.55
2018-02-25T13:00:40.273Z,102554.11
2018-02-25T13:03:06.047Z,102546.16
2018-02-25T13:05:31.925Z,102551.27
2018-02-25T13:07:57.738Z,102545.98
2018-02-25T13:10:24.342Z,102538.80
2018-02-25T13:12:51.073Z,102544.82
2018-02-25T13:15:17.626Z,102543.23
2018-02-25T13:17:43.399Z,102537.21
2018-02-25T13:20:09.181Z,102536.42
2018-02-25T13:22:34.997Z,102530.08
2018-02-25T13:25:01.766Z,102534.34
2018-02-25T13:27:28.514Z,102545.27
2018-02-25T13:29:55.241Z,102533.86
2018-02-25T13:32:21.026Z,102531.39
2018-02-25T13:34:47.766Z,102524.77
2018-02-25T13:37:14.476Z,102528.39
2018-02-25T13:39:41.239Z,102520.64
2018-02-25T13:42:07.067Z,102516.77
2018-02-25T13:44:32.846Z,102520.77
2018-02-25T13:46:58.637Z,102518.47
2018-02-25T13:49:24.413Z,102520.70
2018-02-25T13:51:50.183Z,102511.91
2018-02-25T13:54:15.984Z,102512.64
2018-02-25T13:56:41.765Z,102517.65
2018-02-25T13:59:07.542Z,102513.72
2018-02-25T14:01:33.323Z,102516.62
2018-02-25T14:03:59.107Z,102516.12
2018-02-25T14:06:24.887Z,102510.78
2018-02-25T14:08:51.741Z,102517.13
2018-02-25T14:11:18.454Z,102513.66
2018-02-25T14:13:44.261Z,102508.47
2018-02-25T14:16:10.037Z,102504.74
2018-02-25T14:18:35.815Z,102511.25
2018-02-25T14:21:02.435Z,102505.91
2018-02-25T14:23:28.211Z,102511.55
2018-02-25T14:25:53.993Z,102506.94
2018-02-25T14:28:20.556Z,102505.26
2018-02-25T14:30:46.339Z,102511.47
2018-02-25T14:33:12.143Z,102507.40
2018-02-25T14:35:37.924Z,102503.03
2018-02-25T14:38:03.723Z,102504.43
2018-02-25T14:40:29.547Z,102495.13
2018-02-25T14:42:55.330Z,102502.45
2018-02-25T14:45:21.110Z,102493.34
2018-02-25T14:47:46.886Z,102490.27
2018-02-25T14:50:12.664Z,102492.62
2018-02-25T14:52:39.362Z,102490.39
2018-02-25T14:55:05.150Z,102491.00
2018-02-25T14:57:30.958Z,102494.42
2018-02-25T14:59:57.602Z,102496.56
2018-02-25T15:02:23.378Z,102482.16
2018-02-25T15:04:49.162Z,102482.70
2018-02-25T15:07:14.949Z,102482.39
2018-02-25T15:09:40.773Z,102493.20
2018-02-25T15:12:06.718Z,102491.89
2018-02-25T15:14:33.328Z,102484.13
2018-02-25T15:16:59.155Z,102497.36
2018-02-25T15:19:24.963Z,102495.63
2018-02-25T15:21:50.792Z,102495.28
2018-02-25T15:24:16.579Z,102495.16
2018-02-25T15:26:43.234Z,102491.27
2018-02-25T15:29:09.055Z,102489.78
2018-02-25T15:31:34.879Z,102492.16
2018-02-25T15:34:01.531Z,102491.37
2018-02-25T15:36:27.322Z,102491.23
2018-02-25T15:38:53.138Z,102490.13
2018-02-25T15:41:18.954Z,102493.56
2018-02-25T15:43:45.616Z,102489.06
2018-02-25T15:46:11.445Z,102491.63
2018-02-25T15:48:37.234Z,102489.39
2018-02-25T15:51:03.851Z,102485.55
2018-02-25T15:53:29.638Z,102481.22
2018-02-25T15:55:55.493Z,102484.50
2018-02-25T15:58:21.289Z,102485.13
2018-02-25T16:00:47.121Z,102481.52
2018-02-25T16:03:13.909Z,102482.41
2018-02-25T16:05:39.732Z,102478.89
2018-02-25T16:08:05.514Z,102482.53
2018-02-25T16:10:31.295Z,102479.16
2018-02-25T16:12:58.014Z,102486.70
2018-02-25T16:15:23.795Z,102486.34
2018-02-25T16:17:50.516Z,102490.41
2018-02-25T16:20:16.307Z,102491.80
2018-02-25T16:22:42.097Z,102490.38
2018-02-25T16:25:07.886Z,102497.67
2018-02-25T16:27:33.708Z,102503.48
2018-02-25T16:29:59.553Z,102501.15
2018-02-25T16:32:25.373Z,102499.91
2018-02-25T16:34:51.204Z,102496.59
2018-02-25T16:37:17.047Z,102502.20
2018-02-25T16:39:42.938Z,102506.30
2018-02-25T16:42:08.742Z,102504.56
2018-02-25T16:44:34.691Z,102510.18
2018-02-25T16:47:00.477Z,102504.27
2018-02-25T16:49:26.291Z,102503.75
2018-02-25T16:51:52.290Z,102504.70
2018-02-25T16:54:18.118Z,102513.11
2018-02-25T16:56:43.922Z,102512.64
2018-02-25T16:59:09.701Z,102510.94
2018-02-25T17:01:35.483Z,102518.09
2018-02-25T17:04:02.150Z,102512.38
2018-02-25T17:06:28.895Z,102517.11
2018-02-25T17:08:54.714Z,102521.71
2018-02-25T17:11:20.494Z,102524.60
2018-02-25T17:13:46.378Z,102520.36
2018-02-25T17:16:12.159Z,102520.39
2018-02-25T17:18:37.992Z,102528.08
2018-02-25T17:21:03.932Z,102521.81
2018-02-25T17:23:29.845Z,102527.69
2018-02-25T17:25:55.766Z,102525.09
2018-02-25T17:28:21.554Z,102528.91
2018-02-25T17:30:47.349Z,102525.32
2018-02-25T17:33:13.462Z,102523.91
2018-02-25T17:35:39.241Z,102527.52
2018-02-25T17:38:05.021Z,102528.37
2018-02-25T17:40:30.801Z,102518.06
2018-02-25T17:42:56.598Z,102519.64
2018-02-25T17:45:22.382Z,102518.13
2018-02-25T17:47:48.263Z,102511.20
2018-02-25T17:50:14.958Z,102515.23
2018-02-25T17:52:40.738Z,102512.65
2018-02-25T17:55:06.518Z,102507.85
2018-02-25T17:57:32.306Z,102510.45
2018-02-25T17:59:58.099Z,102507.98
2018-02-25T18:02:24.000Z,102511.16
2018-02-25T18:04:49.781Z,102512.57
2018-02-25T18:07:15.557Z,102503.23
2018-02-25T18:09:41.334Z,102505.66
2018-02-25T18:12:07.132Z,102507.08
2018-02-25T18:14:32.918Z,102510.14
2018-02-25T18:16:58.802Z,102508.41
2018-02-25T18:19:26.233Z,102503.20
2018-02-25T18:21:52.055Z,102507.17
2018-02-25T18:24:17.831Z,102513.69
2018-02-25T18:26:43.610Z,102515.99
2018-02-25T18:29:09.394Z,102508.66
2018-02-25T18:31:42.052Z,102512.11
2018-02-25T18:34:14.733Z,102509.22
2018-02-25T18:36:49.401Z,102513.71
2018-02-25T18:39:15.566Z,102511.98
2018-02-25T18:41:42.746Z,102511.13
2018-02-25T18:44:11.233Z,102520.13
2018-02-25T18:46:40.259Z,102520.92
2018-02-25T18:49:12.117Z,102519.11
2018-02-25T18:51:37.989Z,102518.03
2018-02-25T18:54:14.196Z,102519.67
2018-02-25T18:56:40.146Z,102519.38
2018-02-25T18:59:05.957Z,102523.09
2018-02-25T19:01:32.814Z,102520.23
2018-02-25T19:03:58.769Z,102524.34
2018-02-25T19:06:25.774Z,102526.44
2018-02-25T19:08:51.812Z,102526.24
2018-02-25T19:11:17.668Z,102530.38
2018-02-25T19:13:43.662Z,102529.85
2018-02-25T19:16:09.580Z,102525.32
2018-02-25T19:18:35.454Z,102526.64
2018-02-25T19:21:01.464Z,102524.00
2018-02-25T19:23:28.005Z,102530.02
2018-02-25T19:25:54.072Z,102532.31
2018-02-25T19:28:20.249Z,102529.42
2018-02-25T19:30:46.227Z,102528.64
2018-02-25T19:33:12.192Z,102531.48
2018-02-25T19:35:45.074Z,102527.73
2018-02-25T19:38:17.246Z,102526.73
2018-02-25T19:40:49.244Z,102524.47
2018-02-25T19:43:15.234Z,102529.78
2018-02-25T19:45:41.015Z,102527.39
2018-02-25T19:48:06.969Z,102520.88
2018-02-25T19:50:32.867Z,102520.82
2018-02-25T19:52:58.830Z,102519.15
2018-02-25T19:55:24.705Z,102528.55
2018-02-25T19:57:50.563Z,102525.16
2018-02-25T20:00:16.374Z,102519.94
2018-02-25T20:02:42.361Z,102520.36
2018-02-25T20:05:08.142Z,102529.66
2018-02-25T20:07:34.219Z,102525.16
2018-02-25T20:10:00.134Z,102522.09
2018-02-25T20:12:25.914Z,102527.52
2018-02-25T20:14:51.741Z,102526.64
2018-02-25T20:17:17.515Z,102521.74
2018-02-25T20:19:43.453Z,102528.67
2018-02-25T20:22:09.334Z,102528.58
2018-02-25T20:24:35.115Z,102528.15
2018-02-25T20:27:01.857Z,102522.36
2018-02-25T20:29:27.642Z,102525.62
2018-02-25T20:31:53.419Z,102524.30
2018-02-25T20:34:19.353Z,102517.34
2018-02-25T20:36:46.281Z,102519.81
2018-02-25T20:39:13.093Z,102523.02
2018-02-25T20:41:38.942Z,102515.44
2018-02-25T20:44:04.738Z,102519.13
2018-02-25T20:46:30.549Z,102520.82
2018-02-25T20:48:56.326Z,102514.16
2018-02-25T20:51:22.099Z,102525.45
2018-02-25T20:53:47.873Z,102521.55
2018-02-25T20:56:13.664Z,102518.42
2018-02-25T20:58:39.475Z,102523.58
2018-02-25T21:01:05.477Z,102521.37
2018-02-25T21:03:31.391Z,102521.05
2018-02-25T21:05:57.191Z,102521.80
2018-02-25T21:08:22.974Z,102525.88
2018-02-25T21:10:48.897Z,102525.81
2018-02-25T21:13:14.702Z,102526.47
2018-02-25T21:15:40.482Z,102531.56
2018-02-25T21:18:06.261Z,102529.56
2018-02-25T21:20:32.034Z,102524.63
2018-02-25T21:22:59.407Z,102526.50
2018-02-25T21:25:25.258Z,102524.00
2018-02-25T21:27:51.034Z,102527.72
2018-02-25T21:30:17.006Z,102522.98
2018-02-25T21:32:43.621Z,102527.66
2018-02-25T21:35:09.735Z,102529.19
2018-02-25T21:37:35.522Z,102520.20
2018-02-25T21:40:02.326Z,102524.73
2018-02-25T21:42:28.259Z,102524.42
2018-02-25T21:44:54.034Z,102526.38
2018-02-25T21:47:19.812Z,102524.20
2018-02-25T21:49:45.582Z,102521.81
2018-02-25T21:52:12.385Z,102523.09
2018-02-25T21:54:44.319Z,102520.98
2018-02-25T21:57:16.238Z,102524.20
2018-02-25T21:59:48.157Z,102517.18
2018-02-25T22:02:20.148Z,102522.70
2018-02-25T22:04:45.922Z,102524.56
2018-02-25T22:07:11.742Z,102521.71
2018-02-25T22:09:37.553Z,102525.59
2018-02-25T22:12:04.335Z,102516.81
2018-02-25T22:14:30.198Z,102519.05
2018-02-25T22:16:56.150Z,102519.34
2018-02-25T22:19:21.927Z,102520.89
2018-02-25T22:21:47.714Z,102516.65
2018-02-25T22:24:13.835Z,102512.31
2018-02-25T22:26:39.613Z,102511.30
2018-02-25T22:29:05.582Z,102514.39
2018-02-25T22:31:31.358Z,102515.53
2018-02-25T22:33:57.125Z,102516.78
2018-02-25T22:36:22.939Z,102515.77
2018-02-25T22:38:48.720Z,102513.50
2018-02-25T22:41:14.495Z,102515.99
2018-02-25T22:43:40.276Z,102517.59
2018-02-25T22:46:06.184Z,102518.92
2018-02-25T22:48:31.961Z,102521.84
2018-02-25T22:50:57.743Z,102519.64
2018-02-25T22:53:23.519Z,102523.98
2018-02-25T22:55:49.295Z,102530.95
2018-02-25T22:58:15.065Z,102525.84
2018-02-25T23:00:40.854Z,102530.38
2018-02-25T23:03:06.763Z,102537.70
2018-02-25T23:05:32.537Z,102534.91
2018-02-25T23:07:58.408Z,102538.81
2018-02-25T23:10:24.195Z,102538.94
2018-02-25T23:12:49.969Z,102536.88
2018-02-25T23:15:15.746Z,102540.55
2018-02-25T23:20:21.006Z,102536.94
2018-02-25T23:22:46.913Z,102534.50
2018-02-25T23:25:12.826Z,102543.02
2018-02-25T23:27:38.746Z,102540.33
2018-02-25T23:30:05.540Z,102546.33
2018-02-25T23:32:32.351Z,102534.48
2018-02-25T23:34:58.124Z,102538.03
2018-02-25T23:37:24.868Z,102540.39
2018-02-25T23:39:51.602Z,102539.28
2018-02-25T23:42:18.591Z,102536.41
2018-02-25T23:44:44.411Z,102537.47
2018-02-25T23:47:10.322Z,102538.32
2018-02-25T23:49:36.112Z,102540.16
2018-02-25T23:52:02.835Z,102540.69
2018-02-25T23:54:28.615Z,102548.51
2018-02-25T23:56:54.556Z,102545.23
2018-02-25T23:59:20.442Z,102537.23
